Time;durP1;ratioP1;P1;durP2;ratioP2;P2;SDS_P1;SDS_P2;PMS_P1;PMS_P2;Temp;Humidity;BMP_temperature;BMP_pressure;BME280_temperature;BME280_humidity;BME280_pressure;Samples;Min_cycle;Max_cycle;Signal;HPM_P1;HPM_P2
2022/10/22 00:01:04;;;;;;;11.82;5.53;;;15.00;99.90;;;;;;5082466;28;20452;-72
2022/10/22 00:03:29;;;;;;;15.70;5.43;;;15.00;99.90;;;;;;5083431;28;20020;-72
2022/10/22 00:05:55;;;;;;;16.02;6.15;;;14.90;99.90;;;;;;5084011;28;20026;-74
2022/10/22 00:08:21;;;;;;;12.18;5.82;;;14.90;99.90;;;;;;5082462;28;20016;-73
2022/10/22 00:10:46;;;;;;;11.65;5.32;;;14.80;99.90;;;;;;5084261;28;20084;-71
2022/10/22 00:13:12;;;;;;;16.85;4.90;;;14.80;99.90;;;;;;5083727;28;20480;-70
2022/10/22 00:15:38;;;;;;;12.77;5.10;;;14.80;99.90;;;;;;5083762;28;20065;-71
2022/10/22 00:18:04;;;;;;;15.10;5.80;;;14.80;99.90;;;;;;5079781;28;20080;-73
2022/10/22 00:20:31;;;;;;;14.38;5.28;;;14.80;99.90;;;;;;5081973;28;20352;-71
2022/10/22 00:22:57;;;;;;;14.85;5.72;;;14.80;99.90;;;;;;5082984;28;20036;-72
2022/10/22 00:25:23;;;;;;;16.60;5.05;;;14.80;99.90;;;;;;5083432;28;20023;-71
2022/10/22 00:27:48;;;;;;;15.13;5.07;;;14.80;99.90;;;;;;5081557;28;20090;-71
2022/10/22 00:30:14;;;;;;;18.20;5.50;;;14.80;99.90;;;;;;5082892;28;20036;-71
2022/10/22 00:32:40;;;;;;;10.52;4.47;;;14.70;99.90;;;;;;5084148;28;20045;-71
2022/10/22 00:35:05;;;;;;;16.38;5.70;;;14.70;99.90;;;;;;5082877;28;20086;-71
2022/10/22 00:37:31;;;;;;;12.70;4.70;;;14.80;99.90;;;;;;5082942;28;20026;-71
2022/10/22 00:39:57;;;;;;;14.10;4.65;;;14.80;99.90;;;;;;5082852;28;20460;-72
2022/10/22 00:42:25;;;;;;;14.15;4.97;;;14.80;99.90;;;;;;5082306;28;20444;-72
2022/10/22 00:45:08;;;;;;;12.48;4.50;;;14.80;99.90;;;;;;5082812;28;20024;-72
2022/10/22 00:47:53;;;;;;;13.20;4.78;;;14.80;99.90;;;;;;5080284;28;20024;-71
2022/10/22 00:50:27;;;;;;;11.15;4.20;;;14.80;99.90;;;;;;5080888;28;20024;-73
2022/10/22 00:52:53;;;;;;;12.02;4.20;;;14.80;99.90;;;;;;5079843;28;20471;-72
2022/10/22 00:55:20;;;;;;;13.75;3.90;;;14.90;99.90;;;;;;5084079;28;20039;-74
2022/10/22 00:57:46;;;;;;;13.88;3.95;;;14.90;99.90;;;;;;5082467;28;20028;-71
2022/10/22 01:00:13;;;;;;;9.95;3.90;;;14.90;99.90;;;;;;5082196;28;20456;-72
2022/10/22 01:02:38;;;;;;;11.57;4.50;;;15.00;99.90;;;;;;5083842;28;20032;-72
2022/10/22 01:05:04;;;;;;;18.50;5.35;;;15.00;99.90;;;;;;5080912;28;20023;-72
2022/10/22 01:07:31;;;;;;;11.10;4.28;;;15.10;99.90;;;;;;5086063;28;20042;-72
2022/10/22 01:10:27;;;;;;;10.73;4.40;;;15.10;99.90;;;;;;5073223;28;20048;-72
2022/10/22 01:13:08;;;;;;;14.32;5.15;;;15.20;99.90;;;;;;5069167;28;20043;-72
2022/10/22 01:15:44;;;;;;;13.35;4.28;;;15.20;99.90;;;;;;5070370;28;20024;-72
2022/10/22 01:18:21;;;;;;;10.68;3.85;;;15.30;99.90;;;;;;5081514;28;20460;-74
2022/10/22 01:21:10;;;;;;;12.27;4.55;;;15.30;99.90;;;;;;5081222;28;20085;-72
2022/10/22 01:23:48;;;;;;;16.15;4.68;;;15.30;99.90;;;;;;5079524;28;20037;-72
2022/10/22 01:26:41;;;;;;;13.18;3.67;;;15.30;99.90;;;;;;5080656;28;20049;-72
2022/10/22 01:29:22;;;;;;;14.10;3.90;;;15.30;99.90;;;;;;5079443;28;20036;-72
2022/10/22 01:31:55;;;;;;;10.45;3.88;;;15.30;99.90;;;;;;5081423;28;20042;-72
2022/10/22 01:34:22;;;;;;;13.15;4.07;;;15.40;99.90;;;;;;5078021;28;20025;-72
2022/10/22 01:36:50;;;;;;;9.35;3.28;;;15.40;99.90;;;;;;5081901;28;20456;-72
2022/10/22 01:39:16;;;;;;;8.48;3.42;;;15.50;99.90;;;;;;5080357;28;20473;-72
2022/10/22 01:41:46;;;;;;;8.38;3.20;;;15.40;99.90;;;;;;5081640;28;20021;-73
2022/10/22 01:44:32;;;;;;;14.05;4.10;;;15.50;99.90;;;;;;5081915;28;20039;-73
2022/10/22 01:47:29;;;;;;;9.48;3.60;;;15.50;99.90;;;;;;5075537;28;20028;-72
2022/10/22 01:50:16;;;;;;;7.75;2.95;;;15.50;99.90;;;;;;5082276;28;20131;-72
2022/10/22 01:53:16;;;;;;;9.43;3.97;;;15.60;99.90;;;;;;5088995;28;20027;-73
2022/10/22 01:56:10;;;;;;;11.60;3.20;;;15.60;99.90;;;;;;5057986;28;20068;-71
2022/10/22 01:58:44;;;;;;;10.40;2.63;;;15.60;99.90;;;;;;5072146;28;20036;-71
2022/10/22 02:01:17;;;;;;;10.45;3.90;;;15.60;99.90;;;;;;5072285;28;20041;-72
2022/10/22 02:03:55;;;;;;;8.55;3.33;;;15.50;99.90;;;;;;5072106;28;20029;-72
2022/10/22 02:06:23;;;;;;;9.98;3.60;;;15.60;99.90;;;;;;5072248;28;20025;-72
2022/10/22 02:08:51;;;;;;;10.65;3.60;;;15.60;99.90;;;;;;5072660;28;20047;-72
2022/10/22 02:11:17;;;;;;;17.25;3.58;;;15.60;99.90;;;;;;5072524;28;20410;-72
2022/10/22 02:13:50;;;;;;;12.45;3.47;;;15.60;99.90;;;;;;5072071;28;20024;-72
2022/10/22 02:16:23;;;;;;;7.32;3.20;;;15.60;99.90;;;;;;5071248;28;20028;-72
2022/10/22 02:18:51;;;;;;;11.27;3.58;;;15.50;99.90;;;;;;5072484;28;20028;-72
2022/10/22 02:21:17;;;;;;;12.02;3.88;;;15.50;99.90;;;;;;5071034;28;20020;-72
2022/10/22 02:23:43;;;;;;;10.63;3.50;;;15.40;99.90;;;;;;5070711;28;20073;-72
2022/10/22 02:26:18;;;;;;;17.95;5.15;;;15.40;99.90;;;;;;5072190;28;20027;-72
2022/10/22 02:29:06;;;;;;;11.38;4.28;;;15.30;99.90;;;;;;5071502;28;20041;-73
2022/10/22 02:31:36;;;;;;;11.80;3.30;;;15.30;99.90;;;;;;5072596;28;20032;-72
2022/10/22 02:34:13;;;;;;;9.80;3.88;;;15.20;99.90;;;;;;5072299;28;20474;-74
2022/10/22 02:36:40;;;;;;;9.73;4.00;;;15.10;99.90;;;;;;5072040;28;20070;-73
2022/10/22 02:39:08;;;;;;;9.00;3.47;;;15.10;99.90;;;;;;5071864;28;20035;-74
2022/10/22 02:41:35;;;;;;;9.98;3.53;;;15.10;99.90;;;;;;5072249;28;20073;-72
2022/10/22 02:44:01;;;;;;;10.43;3.13;;;15.00;99.90;;;;;;5071984;28;20111;-73
2022/10/22 02:46:27;;;;;;;10.00;3.55;;;15.00;99.90;;;;;;5072179;28;20021;-73
2022/10/22 02:48:53;;;;;;;16.10;3.50;;;15.00;99.90;;;;;;5072207;28;20078;-72
2022/10/22 02:51:19;;;;;;;11.63;3.15;;;14.90;99.90;;;;;;5072149;28;20047;-74
2022/10/22 02:53:44;;;;;;;5.35;2.80;;;14.90;99.90;;;;;;5071735;28;20071;-74
2022/10/22 02:56:10;;;;;;;15.15;3.38;;;14.90;99.90;;;;;;5072489;28;20043;-74
2022/10/22 02:58:36;;;;;;;9.93;3.15;;;14.90;99.90;;;;;;5071869;28;20158;-74
2022/10/22 03:01:01;;;;;;;12.27;3.60;;;14.90;99.90;;;;;;5071700;28;20444;-74
2022/10/22 03:03:27;;;;;;;11.23;3.40;;;14.90;99.90;;;;;;5071718;28;20036;-73
2022/10/22 03:05:52;;;;;;;10.23;3.42;;;14.90;99.90;;;;;;5071828;28;20035;-73
2022/10/22 03:08:18;;;;;;;9.23;2.85;;;14.90;99.90;;;;;;5072197;28;20112;-73
2022/10/22 03:10:44;;;;;;;14.98;3.70;;;14.90;99.90;;;;;;5071789;28;20070;-72
2022/10/22 03:13:09;;;;;;;9.88;3.53;;;14.90;99.90;;;;;;5071814;28;20036;-74
2022/10/22 03:15:35;;;;;;;9.88;2.55;;;14.90;99.90;;;;;;5071258;28;20360;-74
2022/10/22 03:18:00;;;;;;;7.47;2.58;;;14.90;99.90;;;;;;5071379;28;20037;-72
2022/10/22 03:20:26;;;;;;;12.38;4.00;;;14.90;99.90;;;;;;5081870;28;20016;-74
2022/10/22 03:22:52;;;;;;;8.32;3.00;;;14.90;99.90;;;;;;5084674;28;20081;-71
2022/10/22 03:25:21;;;;;;;8.63;3.40;;;14.90;99.90;;;;;;5071206;28;20093;-74
2022/10/22 03:27:49;;;;;;;11.63;3.78;;;14.90;99.90;;;;;;5072505;28;20044;-71
2022/10/22 03:30:14;;;;;;;14.30;4.13;;;14.90;99.90;;;;;;5074484;28;20111;-72
2022/10/22 03:32:40;;;;;;;12.70;3.58;;;14.90;99.90;;;;;;5074906;28;20115;-72
2022/10/22 03:35:06;;;;;;;12.43;3.75;;;14.80;99.90;;;;;;5074839;28;20075;-72
2022/10/22 03:37:32;;;;;;;7.75;2.78;;;14.80;99.90;;;;;;5075557;28;20034;-72
2022/10/22 03:39:59;;;;;;;10.98;3.47;;;14.80;99.90;;;;;;5075214;28;20032;-72
2022/10/22 03:42:25;;;;;;;12.20;3.60;;;14.80;99.90;;;;;;5075183;28;20021;-72
2022/10/22 03:44:52;;;;;;;16.02;3.67;;;14.80;99.90;;;;;;5074515;28;20032;-72
2022/10/22 03:47:17;;;;;;;13.25;3.78;;;14.80;99.90;;;;;;5075078;28;20388;-72
2022/10/22 03:49:43;;;;;;;9.70;3.47;;;14.70;99.90;;;;;;5075159;28;20044;-72
2022/10/22 03:52:11;;;;;;;14.00;3.42;;;14.80;99.90;;;;;;5075267;28;20016;-72
2022/10/22 03:54:38;;;;;;;13.70;3.38;;;14.80;99.90;;;;;;5073797;28;20032;-72
2022/10/22 03:57:05;;;;;;;10.88;3.05;;;14.80;99.90;;;;;;5075277;28;20317;-72
2022/10/22 03:59:42;;;;;;;16.40;3.50;;;14.80;99.90;;;;;;5075100;28;20028;-72
2022/10/22 04:02:09;;;;;;;11.50;3.40;;;14.80;99.90;;;;;;5074778;28;20032;-72
2022/10/22 04:04:35;;;;;;;14.02;3.40;;;14.80;99.90;;;;;;5074213;28;20773;-72
2022/10/22 04:07:00;;;;;;;12.55;3.53;;;14.80;99.90;;;;;;5074447;28;20029;-72
2022/10/22 04:09:26;;;;;;;14.88;3.95;;;14.80;99.90;;;;;;5075174;28;20044;-72
2022/10/22 04:11:52;;;;;;;11.15;2.92;;;14.80;99.90;;;;;;5086058;28;20463;-72
2022/10/22 04:14:17;;;;;;;12.65;3.10;;;14.80;99.90;;;;;;5070612;28;20028;-72
2022/10/22 04:16:43;;;;;;;16.65;3.88;;;14.70;99.90;;;;;;5074598;28;20028;-72
2022/10/22 04:19:08;;;;;;;13.85;3.38;;;14.70;99.90;;;;;;5074954;28;20032;-72
2022/10/22 04:21:34;;;;;;;13.52;3.22;;;14.70;99.90;;;;;;5073945;28;20023;-72
2022/10/22 04:24:00;;;;;;;11.45;3.60;;;14.70;99.90;;;;;;5074385;28;20016;-72
2022/10/22 04:26:26;;;;;;;14.35;3.88;;;14.70;99.90;;;;;;5074705;28;20020;-72
2022/10/22 04:28:52;;;;;;;14.48;3.42;;;14.70;99.90;;;;;;5073907;28;20381;-72
2022/10/22 04:31:22;;;;;;;11.13;3.05;;;14.70;99.90;;;;;;5073151;28;20421;-72
2022/10/22 04:33:55;;;;;;;14.48;3.38;;;14.70;99.90;;;;;;5074158;28;20040;-72
2022/10/22 04:36:22;;;;;;;15.88;3.33;;;14.70;99.90;;;;;;5073834;28;20086;-72
2022/10/22 04:38:56;;;;;;;10.00;3.00;;;14.70;99.90;;;;;;5072016;28;20028;-72
2022/10/22 04:41:30;;;;;;;13.52;3.38;;;14.70;99.90;;;;;;5073066;28;20386;-72
2022/10/22 04:43:56;;;;;;;12.35;2.75;;;14.70;99.90;;;;;;5073436;28;20032;-72
2022/10/22 04:46:24;;;;;;;13.70;3.45;;;14.70;99.90;;;;;;5073986;28;20020;-72
2022/10/22 04:48:50;;;;;;;10.55;3.28;;;14.70;99.90;;;;;;5073783;28;20031;-72
2022/10/22 04:51:18;;;;;;;12.98;3.40;;;14.70;99.90;;;;;;5074248;28;20516;-72
2022/10/22 04:53:44;;;;;;;10.35;3.08;;;14.70;99.90;;;;;;5073930;28;20581;-72
2022/10/22 04:56:19;;;;;;;12.77;3.17;;;14.70;99.90;;;;;;5073517;28;20066;-72
2022/10/22 04:58:47;;;;;;;12.05;3.53;;;14.70;99.90;;;;;;5074043;28;20140;-72
2022/10/22 05:01:17;;;;;;;9.52;2.78;;;14.70;99.90;;;;;;5074010;28;20032;-72
2022/10/22 05:03:43;;;;;;;13.63;3.42;;;14.70;99.90;;;;;;5073896;28;20020;-72
2022/10/22 05:06:09;;;;;;;12.52;3.55;;;14.60;99.90;;;;;;5073765;28;20037;-72
2022/10/22 05:08:35;;;;;;;12.27;3.10;;;14.60;99.90;;;;;;5073620;28;20107;-72
2022/10/22 05:11:08;;;;;;;13.60;3.63;;;14.70;99.90;;;;;;5073854;28;20189;-72
2022/10/22 05:13:34;;;;;;;14.02;3.55;;;14.60;99.90;;;;;;5074238;28;20321;-72
2022/10/22 05:16:01;;;;;;;9.20;2.97;;;14.50;99.90;;;;;;5072407;28;20017;-72
2022/10/22 05:18:26;;;;;;;12.18;2.70;;;14.50;99.90;;;;;;5073693;28;20020;-72
2022/10/22 05:20:52;;;;;;;10.68;2.60;;;14.50;99.90;;;;;;5073237;28;20111;-72
2022/10/22 05:23:17;;;;;;;15.98;3.70;;;14.40;99.90;;;;;;5073603;28;20024;-72
2022/10/22 05:25:43;;;;;;;14.82;3.08;;;14.40;99.90;;;;;;5073431;28;20078;-72
2022/10/22 05:28:08;;;;;;;12.98;3.25;;;14.40;99.90;;;;;;5073499;28;20048;-72
2022/10/22 05:30:34;;;;;;;14.48;3.45;;;14.40;99.90;;;;;;5073121;28;20076;-72
2022/10/22 05:33:00;;;;;;;10.45;2.90;;;14.30;99.90;;;;;;5071922;28;20111;-72
2022/10/22 05:35:25;;;;;;;9.95;2.97;;;14.30;99.90;;;;;;5073079;28;20037;-72
2022/10/22 05:37:51;;;;;;;13.73;3.50;;;14.30;99.90;;;;;;5073315;28;20052;-73
2022/10/22 05:40:16;;;;;;;9.23;3.30;;;14.30;99.90;;;;;;5073494;28;20067;-73
2022/10/22 05:42:42;;;;;;;12.13;3.10;;;14.20;99.90;;;;;;5073454;28;20026;-71
2022/10/22 05:45:08;;;;;;;10.80;2.92;;;14.20;99.90;;;;;;5072521;28;20032;-71
2022/10/22 05:47:33;;;;;;;15.82;3.50;;;14.20;99.90;;;;;;5072764;28;20036;-71
2022/10/22 05:49:59;;;;;;;13.50;4.45;;;14.20;99.90;;;;;;5072300;28;20032;-71
2022/10/22 05:52:25;;;;;;;14.30;3.20;;;14.20;99.90;;;;;;5072417;28;20021;-71
2022/10/22 05:54:51;;;;;;;13.05;3.50;;;14.20;99.90;;;;;;5072824;28;20032;-72
2022/10/22 05:57:16;;;;;;;14.30;3.75;;;14.20;99.90;;;;;;5072604;28;20025;-70
2022/10/22 05:59:42;;;;;;;14.10;3.25;;;14.30;99.90;;;;;;5073093;28;20040;-72
2022/10/22 06:02:10;;;;;;;14.88;3.63;;;14.30;99.90;;;;;;5072701;28;20073;-71
2022/10/22 06:04:36;;;;;;;14.75;3.30;;;14.40;99.90;;;;;;5071759;28;20073;-71
2022/10/22 06:07:02;;;;;;;17.58;4.75;;;14.40;99.90;;;;;;5072119;28;20028;-71
2022/10/22 06:09:31;;;;;;;14.00;2.75;;;14.50;99.90;;;;;;5072425;28;20368;-71
2022/10/22 06:11:57;;;;;;;11.00;3.10;;;14.50;99.90;;;;;;5072814;28;20034;-71
2022/10/22 06:14:23;;;;;;;10.88;2.95;;;14.60;99.90;;;;;;5072195;28;20024;-71
2022/10/22 06:16:49;;;;;;;11.82;2.95;;;14.60;99.90;;;;;;5071729;28;20033;-71
2022/10/22 06:19:17;;;;;;;12.88;3.17;;;14.60;99.90;;;;;;5080295;28;20078;-71
2022/10/22 06:21:43;;;;;;;9.10;2.38;;;14.60;99.90;;;;;;5065907;28;20036;-71
2022/10/22 06:24:10;;;;;;;14.23;2.97;;;14.70;99.90;;;;;;5057892;28;20032;-73
2022/10/22 06:26:35;;;;;;;15.15;2.95;;;14.70;99.90;;;;;;5072629;28;20025;-70
2022/10/22 06:29:01;;;;;;;11.98;2.75;;;14.70;99.90;;;;;;5069498;28;20052;-71
2022/10/22 06:31:27;;;;;;;13.48;2.92;;;14.70;99.90;;;;;;5071046;28;20157;-71
2022/10/22 06:33:53;;;;;;;10.13;2.95;;;14.70;99.90;;;;;;5072007;28;20024;-73
2022/10/22 06:36:22;;;;;;;12.90;3.28;;;14.70;99.90;;;;;;5062741;28;20052;-74
2022/10/22 06:38:51;;;;;;;12.18;3.13;;;14.80;99.90;;;;;;5055817;28;20052;-72
2022/10/22 06:41:16;;;;;;;12.73;4.32;;;14.80;99.90;;;;;;5070543;28;20117;-71
2022/10/22 06:43:46;;;;;;;13.40;2.42;;;14.90;99.90;;;;;;5070388;28;20370;-72
2022/10/22 06:46:14;;;;;;;12.48;3.33;;;14.90;99.90;;;;;;5071420;28;20028;-74
2022/10/22 06:48:40;;;;;;;11.95;2.70;;;14.90;99.90;;;;;;5072173;28;20033;-71
2022/10/22 06:51:14;;;;;;;10.35;2.30;;;15.00;99.90;;;;;;5072255;28;20024;-74
2022/10/22 06:53:40;;;;;;;8.48;3.20;;;15.00;99.90;;;;;;5072532;28;20035;-71
2022/10/22 06:56:12;;;;;;;10.75;2.80;;;15.10;99.90;;;;;;5071998;28;20032;-71
2022/10/22 06:58:37;;;;;;;11.68;2.38;;;15.10;99.90;;;;;;5071966;28;20079;-71
2022/10/22 07:01:06;;;;;;;8.48;2.03;;;15.10;99.90;;;;;;5071764;28;20052;-72
2022/10/22 07:03:32;;;;;;;9.80;2.67;;;15.20;99.90;;;;;;5055787;28;20032;-70
2022/10/22 07:06:01;;;;;;;13.57;3.10;;;15.20;99.90;;;;;;5069043;28;20095;-71
2022/10/22 07:08:27;;;;;;;11.00;2.85;;;15.20;99.90;;;;;;5075796;28;20021;-72
2022/10/22 07:10:53;;;;;;;13.95;2.53;;;15.20;99.90;;;;;;5075659;28;20072;-71
2022/10/22 07:13:19;;;;;;;7.82;2.10;;;15.20;99.90;;;;;;5074377;28;20511;-72
2022/10/22 07:15:44;;;;;;;11.88;2.72;;;15.30;99.90;;;;;;5075248;28;20038;-73
2022/10/22 07:18:10;;;;;;;13.02;3.00;;;15.30;99.90;;;;;;5076083;28;20104;-72
2022/10/22 07:20:35;;;;;;;9.93;2.53;;;15.40;99.90;;;;;;5075875;28;20028;-71
2022/10/22 07:23:01;;;;;;;13.07;3.08;;;15.50;99.90;;;;;;5076086;28;20109;-72
2022/10/22 07:25:26;;;;;;;5.22;1.98;;;15.50;99.90;;;;;;5074872;28;20107;-71
2022/10/22 07:27:52;;;;;;;13.18;2.47;;;15.50;99.90;;;;;;5075464;28;20052;-71
2022/10/22 07:30:17;;;;;;;12.73;2.50;;;15.50;99.90;;;;;;5075336;28;20049;-71
2022/10/22 07:32:43;;;;;;;12.88;3.00;;;15.60;99.90;;;;;;5075091;28;20054;-71
2022/10/22 07:35:08;;;;;;;8.82;2.88;;;15.60;99.90;;;;;;5075102;28;20460;-71
2022/10/22 07:37:34;;;;;;;9.60;2.95;;;15.60;99.90;;;;;;5074941;28;20060;-71
2022/10/22 07:40:00;;;;;;;10.48;2.13;;;15.60;99.90;;;;;;5075229;28;20048;-71
2022/10/22 07:42:29;;;;;;;9.95;3.28;;;15.70;99.90;;;;;;5072098;28;20073;-72
2022/10/22 07:44:54;;;;;;;14.57;2.83;;;15.60;99.90;;;;;;5073951;28;20056;-71
2022/10/22 07:47:20;;;;;;;12.13;3.10;;;15.60;99.90;;;;;;5074658;28;20067;-71
2022/10/22 07:49:45;;;;;;;15.00;5.63;;;15.60;99.90;;;;;;5075082;28;20476;-71
2022/10/22 07:52:11;;;;;;;10.38;2.67;;;15.60;99.90;;;;;;5075008;28;20028;-73
2022/10/22 07:54:36;;;;;;;11.05;3.13;;;15.70;99.90;;;;;;5075393;28;20024;-71
2022/10/22 07:57:02;;;;;;;11.45;2.58;;;15.80;99.90;;;;;;5075157;28;20040;-70
2022/10/22 07:59:28;;;;;;;10.68;2.53;;;15.90;99.90;;;;;;5074914;28;20089;-72
2022/10/22 08:01:53;;;;;;;11.93;2.60;;;15.90;99.90;;;;;;5074070;28;20029;-73
2022/10/22 08:04:19;;;;;;;7.13;2.70;;;15.90;99.90;;;;;;5074872;28;20078;-71
2022/10/22 08:06:44;;;;;;;15.40;4.00;;;16.00;99.90;;;;;;5074464;28;20108;-71
2022/10/22 08:09:10;;;;;;;15.30;2.92;;;16.00;99.90;;;;;;5074094;28;20435;-71
2022/10/22 08:11:37;;;;;;;18.45;5.28;;;16.10;99.90;;;;;;5072287;28;20085;-71
2022/10/22 08:14:02;;;;;;;9.60;2.00;;;16.10;99.90;;;;;;5073708;28;20032;-72
2022/10/22 08:16:28;;;;;;;18.58;6.38;;;16.20;99.90;;;;;;5074066;28;20041;-70
2022/10/22 08:18:53;;;;;;;14.60;3.05;;;16.10;99.90;;;;;;5074441;28;20103;-73
2022/10/22 08:21:19;;;;;;;23.77;7.22;;;16.10;99.90;;;;;;5074860;28;20510;-73
2022/10/22 08:23:45;;;;;;;17.58;5.13;;;16.20;99.90;;;;;;5074920;28;20024;-72
2022/10/22 08:26:10;;;;;;;17.38;5.15;;;16.20;99.90;;;;;;5074615;28;20027;-74
2022/10/22 08:28:36;;;;;;;17.00;5.10;;;16.30;99.90;;;;;;5074100;28;20098;-74
2022/10/22 08:31:04;;;;;;;21.98;5.85;;;16.40;99.90;;;;;;5073672;28;20029;-71
2022/10/22 08:33:29;;;;;;;14.38;4.28;;;16.40;99.90;;;;;;5072781;28;20048;-71
2022/10/22 08:35:55;;;;;;;10.00;3.33;;;16.40;99.90;;;;;;5057967;28;20359;-71
2022/10/22 08:38:21;;;;;;;15.98;4.28;;;16.20;99.90;;;;;;5074150;28;20119;-71
2022/10/22 08:40:51;;;;;;;14.57;3.90;;;16.10;99.90;;;;;;5073395;28;20028;-71
2022/10/22 08:43:57;;;;;;;22.17;7.07;;;16.10;99.90;;;;;;5074033;28;20364;-71
2022/10/22 08:47:08;;;;;;;17.20;5.88;;;16.10;99.90;;;;;;5068999;28;20119;-71
2022/10/22 08:49:37;;;;;;;17.17;4.57;;;16.10;99.90;;;;;;5053903;28;20090;-71
2022/10/22 08:52:03;;;;;;;23.30;5.70;;;16.20;99.90;;;;;;5072401;28;20416;-71
2022/10/22 08:54:48;;;;;;;22.17;5.68;;;16.20;99.90;;;;;;5074080;28;20029;-72
2022/10/22 08:57:34;;;;;;;15.55;4.20;;;16.30;99.90;;;;;;5073487;28;20020;-70
2022/10/22 09:00:18;;;;;;;23.30;7.00;;;16.40;99.90;;;;;;5069233;28;20041;-71
2022/10/22 09:03:02;;;;;;;19.08;4.82;;;16.60;99.90;;;;;;5059106;28;20029;-70
2022/10/22 09:06:00;;;;;;;18.13;4.50;;;16.70;99.90;;;;;;5073533;28;20141;-70
2022/10/22 09:08:26;;;;;;;15.63;3.78;;;16.80;99.90;;;;;;5062677;28;20052;-70
2022/10/22 09:11:00;;;;;;;18.50;4.07;;;17.40;99.90;;;;;;5073868;28;20055;-72
2022/10/22 09:13:25;;;;;;;14.80;4.50;;;17.90;99.90;;;;;;5073527;28;20060;-71
2022/10/22 09:15:57;;;;;;;13.43;3.53;;;18.20;99.90;;;;;;5073360;28;20055;-71
2022/10/22 09:18:38;;;;;;;11.48;2.35;;;18.20;99.90;;;;;;5072766;28;20028;-71
2022/10/22 09:21:22;;;;;;;15.45;3.30;;;18.20;99.90;;;;;;5072923;28;20099;-73
2022/10/22 09:24:09;;;;;;;14.07;3.22;;;18.00;99.90;;;;;;5073369;28;20021;-73
2022/10/22 09:26:37;;;;;;;13.77;3.55;;;17.90;99.90;;;;;;5073220;28;20020;-74
2022/10/22 09:29:03;;;;;;;19.15;4.55;;;17.90;99.90;;;;;;5071593;28;20041;-71
2022/10/22 09:31:31;;;;;;;17.90;4.05;;;18.10;99.90;;;;;;5072891;28;20029;-71
2022/10/22 09:33:58;;;;;;;14.27;2.92;;;18.10;99.90;;;;;;5072968;28;20063;-71
2022/10/22 09:36:27;;;;;;;12.88;3.15;;;18.20;99.90;;;;;;5071379;28;20013;-71
2022/10/22 09:38:53;;;;;;;17.38;3.55;;;18.20;99.90;;;;;;5072894;28;20075;-71
2022/10/22 09:41:21;;;;;;;16.15;4.88;;;18.20;99.90;;;;;;5071361;28;20389;-71
2022/10/22 09:43:47;;;;;;;22.98;4.43;;;18.10;99.90;;;;;;5073240;28;20379;-70
2022/10/22 09:46:18;;;;;;;16.67;3.58;;;18.20;99.90;;;;;;5073642;28;20024;-71
2022/10/22 09:48:50;;;;;;;14.87;3.40;;;18.30;99.90;;;;;;5073175;28;20024;-71
2022/10/22 09:51:21;;;;;;;17.75;3.25;;;18.50;99.90;;;;;;5073031;28;20273;-72
2022/10/22 09:53:56;;;;;;;17.52;3.38;;;18.80;99.90;;;;;;5072694;28;20040;-71
2022/10/22 09:56:36;;;;;;;11.75;2.63;;;18.80;99.90;;;;;;5071152;28;20383;-72
2022/10/22 09:59:03;;;;;;;20.95;4.32;;;18.90;99.90;;;;;;5074817;28;20492;-72
2022/10/22 10:01:32;;;;;;;18.92;3.63;;;18.70;99.90;;;;;;5083852;28;20140;-72
2022/10/22 10:04:06;;;;;;;23.95;4.25;;;18.50;99.90;;;;;;5072516;28;20100;-72
2022/10/22 10:06:34;;;;;;;19.40;4.50;;;18.30;99.90;;;;;;5076664;28;20030;-71
2022/10/22 10:09:05;;;;;;;21.30;6.60;;;18.10;99.90;;;;;;5079290;28;20467;-72
2022/10/22 10:11:44;;;;;;;19.20;3.08;;;17.80;99.90;;;;;;5081117;28;20061;-71
2022/10/22 10:14:23;;;;;;;18.42;3.15;;;17.60;99.90;;;;;;5082308;28;20467;-72
2022/10/22 10:16:58;;;;;;;24.42;3.38;;;17.50;99.90;;;;;;5075927;28;20032;-73
2022/10/22 10:19:35;;;;;;;26.73;4.38;;;17.30;99.90;;;;;;5075652;28;20367;-75
2022/10/22 10:22:08;;;;;;;40.33;8.52;;;17.30;99.90;;;;;;5072713;28;20016;-75
2022/10/22 10:25:03;;;;;;;27.80;7.57;;;17.10;99.90;;;;;;5075158;28;20028;-74
2022/10/22 10:27:37;;;;;;;21.83;6.75;;;16.80;99.90;;;;;;5073399;28;20021;-73
2022/10/22 10:30:14;;;;;;;22.77;6.43;;;16.60;99.90;;;;;;5072137;28;20064;-71
2022/10/22 10:32:59;;;;;;;23.23;4.95;;;16.50;99.90;;;;;;5071308;28;20028;-73
2022/10/22 10:35:46;;;;;;;28.23;7.07;;;16.40;99.90;;;;;;5074273;28;20476;-71
2022/10/22 10:38:32;;;;;;;27.35;4.97;;;16.50;99.90;;;;;;5077748;28;20016;-71
2022/10/22 10:41:30;;;;;;;25.95;5.07;;;16.60;99.90;;;;;;5077040;28;20383;-70
2022/10/22 10:44:23;;;;;;;22.88;5.93;;;16.70;99.90;;;;;;5075576;28;20025;-72
2022/10/22 10:47:31;;;;;;;16.88;4.93;;;17.00;99.90;;;;;;5079759;28;20127;-74
2022/10/22 10:50:24;;;;;;;27.17;5.68;;;17.40;99.90;;;;;;5074918;28;20540;-72
2022/10/22 10:53:02;;;;;;;19.67;4.43;;;17.70;99.90;;;;;;5080569;28;20411;-72
2022/10/22 10:55:33;;;;;;;20.60;4.10;;;17.80;99.90;;;;;;5079268;28;20024;-74
2022/10/22 10:58:29;;;;;;;17.60;3.15;;;18.20;99.90;;;;;;5079122;28;20102;-71
2022/10/22 11:01:01;;;;;;;17.60;4.57;;;18.90;99.90;;;;;;5078369;28;20124;-72
2022/10/22 11:03:44;;;;;;;14.80;4.68;;;19.50;99.90;;;;;;5077604;28;20059;-72
2022/10/22 11:06:14;;;;;;;16.73;5.32;;;20.30;99.90;;;;;;5079148;28;20115;-74
2022/10/22 11:09:10;;;;;;;15.48;3.80;;;21.10;99.90;;;;;;5079692;28;20117;-72
2022/10/22 11:11:41;;;;;;;16.77;5.03;;;21.40;99.90;;;;;;5070971;28;20064;-74
2022/10/22 11:14:25;;;;;;;13.43;4.70;;;21.60;99.90;;;;;;5080167;28;20039;-72
2022/10/22 11:17:02;;;;;;;15.93;4.60;;;21.80;99.90;;;;;;5079985;28;20020;-72
2022/10/22 11:19:31;;;;;;;20.05;4.68;;;21.70;99.90;;;;;;5074717;28;20029;-72
2022/10/22 11:22:15;;;;;;;17.48;3.65;;;22.10;99.90;;;;;;5077707;28;20486;-72
2022/10/22 11:24:54;;;;;;;13.00;4.45;;;22.30;99.90;;;;;;5078278;28;20070;-75
2022/10/22 11:27:41;;;;;;;16.48;4.15;;;22.90;99.90;;;;;;5080131;28;20044;-72
2022/10/22 11:30:20;;;;;;;10.50;2.78;;;23.10;99.90;;;;;;5077065;28;20380;-70
2022/10/22 11:32:55;;;;;;;16.00;4.43;;;23.30;99.90;;;;;;5082608;28;20032;-72
2022/10/22 11:35:34;;;;;;;8.73;2.05;;;23.50;99.90;;;;;;5075623;28;20020;-72
2022/10/22 11:38:04;;;;;;;18.67;4.20;;;23.60;99.90;;;;;;5083194;28;20029;-72
2022/10/22 11:40:50;;;;;;;20.63;4.63;;;23.70;99.90;;;;;;5076789;28;20518;-73
2022/10/22 11:43:48;;;;;;;20.45;4.45;;;23.70;99.90;;;;;;5073892;28;20066;-73
2022/10/22 11:46:16;;;;;;;18.50;3.42;;;23.60;99.90;;;;;;5075718;28;20127;-73
2022/10/22 11:48:42;;;;;;;18.20;2.90;;;23.60;99.90;;;;;;5080030;28;20050;-75
2022/10/22 11:51:34;;;;;;;14.75;2.83;;;23.30;99.90;;;;;;5088586;28;20400;-72
2022/10/22 11:54:27;;;;;;;16.27;2.58;;;23.00;99.90;;;;;;5084234;28;20020;-72
2022/10/22 11:57:16;;;;;;;17.92;2.90;;;22.50;99.90;;;;;;5080058;28;20427;-72
2022/10/22 11:59:45;;;;;;;18.35;2.88;;;22.20;99.90;;;;;;5079402;28;20051;-74
2022/10/22 12:02:27;;;;;;;15.80;2.30;;;21.90;99.90;;;;;;5080900;28;20027;-73
2022/10/22 12:05:17;;;;;;;19.00;2.85;;;21.60;99.90;;;;;;5080772;28;20047;-72
2022/10/22 12:08:10;;;;;;;20.30;3.15;;;21.20;99.90;;;;;;5085499;28;20340;-73
2022/10/22 12:10:54;;;;;;;18.75;2.90;;;20.90;99.90;;;;;;5083470;28;20040;-72
2022/10/22 12:13:27;;;;;;;21.80;2.92;;;20.80;99.90;;;;;;5076760;28;20452;-72
2022/10/22 12:16:05;;;;;;;19.35;4.05;;;20.70;99.90;;;;;;5081703;28;20016;-72
2022/10/22 12:18:40;;;;;;;21.05;3.33;;;20.60;99.90;;;;;;5073910;28;20099;-71
2022/10/22 12:21:05;;;;;;;17.73;2.72;;;20.40;99.90;;;;;;5074659;28;20047;-73
2022/10/22 12:23:33;;;;;;;18.17;2.72;;;20.40;99.90;;;;;;5067402;28;20512;-75
2022/10/22 12:25:59;;;;;;;16.77;2.75;;;20.30;99.90;;;;;;5075116;28;20059;-72
2022/10/22 12:28:25;;;;;;;17.85;3.25;;;20.30;99.90;;;;;;5074876;28;20082;-72
2022/10/22 12:30:50;;;;;;;16.45;2.70;;;20.30;99.90;;;;;;5069854;28;20437;-71
2022/10/22 12:33:21;;;;;;;18.77;2.92;;;20.70;99.90;;;;;;5074236;28;20028;-72
2022/10/22 12:35:51;;;;;;;15.23;3.15;;;20.90;99.90;;;;;;5081043;28;20031;-72
2022/10/22 12:38:22;;;;;;;25.10;3.72;;;21.20;99.90;;;;;;5073141;28;20100;-73
2022/10/22 12:40:50;;;;;;;18.02;2.95;;;21.70;99.90;;;;;;5064131;28;20028;-70
2022/10/22 12:43:27;;;;;;;16.50;2.80;;;21.60;99.90;;;;;;5059201;28;20039;-72
2022/10/22 12:45:56;;;;;;;20.00;2.95;;;21.40;99.90;;;;;;5060669;28;20021;-70
2022/10/22 12:48:33;;;;;;;22.40;3.47;;;21.20;99.90;;;;;;5061377;28;20104;-70
2022/10/22 12:51:00;;;;;;;18.63;3.28;;;21.10;99.90;;;;;;5068596;28;20031;-71
2022/10/22 12:53:34;;;;;;;19.73;3.05;;;20.80;99.90;;;;;;5058064;28;20013;-70
2022/10/22 12:56:03;;;;;;;19.67;3.50;;;20.60;99.90;;;;;;5064799;28;20032;-71
2022/10/22 12:58:44;;;;;;;21.58;3.15;;;20.60;99.90;;;;;;5066501;28;20056;-71